Quinton, New Jersey
Current Conditions -  °F | °C
As of 12:51 PM on Saturday 25 Oct 2014 (Local Time) from KILG Reporting Station
Clear Clear  
Wind Chill: 67°   Ceiling: Unl
Heat Index: 67°   Visibility: 10mi
Dew Point: 44°   Wind: 8mph
Humidity: 44%   Direction: 230°SW
Pressure: 29.84"   Gusts: NA
Location:  39.55°N, 75.41°W
Report Text: KILG 251651Z 23007KT 170V250 10SM CLR 19/07 A2984 RMK AO2 PRESFR SLP104 T01940067
Loading
Personal Weather Stations






























Interactive Weather Map
Tropical Storm Tracking
New forecast layout! Learn more

10-Day Weather Forecast

Advertisements
Track Severe Weather on mobile